sensor_id;sensor_type;location;lat;lon;timestamp;pressure;altitude;pressure_sealevel;temperature;humidity
16978;BME280;8605;52.548;4.918;2023-12-04T00:02:24;101270.22;;;0.55;97.48
16978;BME280;8605;52.548;4.918;2023-12-04T00:04:52;101271.00;;;0.57;97.78
16978;BME280;8605;52.548;4.918;2023-12-04T00:07:21;101270.22;;;0.55;97.50
16978;BME280;8605;52.548;4.918;2023-12-04T00:09:51;101268.34;;;0.57;97.70
16978;BME280;8605;52.548;4.918;2023-12-04T00:12:21;101265.78;;;0.55;97.71
16978;BME280;8605;52.548;4.918;2023-12-04T00:14:49;101269.22;;;0.57;97.68
16978;BME280;8605;52.548;4.918;2023-12-04T00:17:16;101265.69;;;0.57;97.37
16978;BME280;8605;52.548;4.918;2023-12-04T00:19:44;101260.34;;;0.58;97.61
16978;BME280;8605;52.548;4.918;2023-12-04T00:22:12;101262.00;;;0.59;97.58
16978;BME280;8605;52.548;4.918;2023-12-04T00:24:41;101243.59;;;0.58;97.34
16978;BME280;8605;52.548;4.918;2023-12-04T00:27:08;101248.88;;;0.58;97.82
16978;BME280;8605;52.548;4.918;2023-12-04T00:29:36;101240.94;;;0.58;97.12
16978;BME280;8605;52.548;4.918;2023-12-04T00:32:05;101239.03;;;0.60;97.45
16978;BME280;8605;52.548;4.918;2023-12-04T00:34:33;101229.38;;;0.59;97.49
16978;BME280;8605;52.548;4.918;2023-12-04T00:37:01;101234.53;;;0.62;97.36
16978;BME280;8605;52.548;4.918;2023-12-04T00:39:29;101227.53;;;0.61;97.21
16978;BME280;8605;52.548;4.918;2023-12-04T00:41:59;101231.88;;;0.62;96.91
16978;BME280;8605;52.548;4.918;2023-12-04T00:44:27;101229.22;;;0.62;97.12
16978;BME280;8605;52.548;4.918;2023-12-04T00:46:54;101218.06;;;0.57;96.83
16978;BME280;8605;52.548;4.918;2023-12-04T00:49:22;101228.31;;;0.63;96.92
16978;BME280;8605;52.548;4.918;2023-12-04T00:51:50;101229.16;;;0.63;96.82
16978;BME280;8605;52.548;4.918;2023-12-04T00:54:18;101210.69;;;0.62;97.02
16978;BME280;8605;52.548;4.918;2023-12-04T00:56:46;101217.78;;;0.61;96.75
16978;BME280;8605;52.548;4.918;2023-12-04T00:59:15;101212.41;;;0.63;96.92
16978;BME280;8605;52.548;4.918;2023-12-04T01:01:43;101213.34;;;0.62;97.03
16978;BME280;8605;52.548;4.918;2023-12-04T01:04:11;101202.91;;;0.59;96.79
16978;BME280;8605;52.548;4.918;2023-12-04T01:06:38;101206.34;;;0.61;96.69
16978;BME280;8605;52.548;4.918;2023-12-04T01:09:06;101195.47;;;0.65;97.31
16978;BME280;8605;52.548;4.918;2023-12-04T01:11:34;101197.91;;;0.70;96.49
16978;BME280;8605;52.548;4.918;2023-12-04T01:14:03;101197.78;;;0.71;96.55
16978;BME280;8605;52.548;4.918;2023-12-04T01:16:32;101199.69;;;0.69;96.70
16978;BME280;8605;52.548;4.918;2023-12-04T01:19:00;101207.56;;;0.71;96.80
16978;BME280;8605;52.548;4.918;2023-12-04T01:21:28;101197.69;;;0.73;97.17
16978;BME280;8605;52.548;4.918;2023-12-04T01:23:55;101196.09;;;0.70;97.27
16978;BME280;8605;52.548;4.918;2023-12-04T01:26:23;101196.09;;;0.70;97.05
16978;BME280;8605;52.548;4.918;2023-12-04T01:28:51;101190.88;;;0.69;97.34
16978;BME280;8605;52.548;4.918;2023-12-04T01:31:18;101190.03;;;0.68;97.08
16978;BME280;8605;52.548;4.918;2023-12-04T01:33:47;101187.31;;;0.70;97.45
16978;BME280;8605;52.548;4.918;2023-12-04T01:36:15;101189.94;;;0.70;97.17
16978;BME280;8605;52.548;4.918;2023-12-04T01:38:45;101180.22;;;0.70;97.19
16978;BME280;8605;52.548;4.918;2023-12-04T01:41:13;101177.66;;;0.69;97.38
16978;BME280;8605;52.548;4.918;2023-12-04T01:43:40;101178.50;;;0.69;97.24
16978;BME280;8605;52.548;4.918;2023-12-04T01:46:08;101171.41;;;0.70;97.52
16978;BME280;8605;52.548;4.918;2023-12-04T01:48:37;101164.31;;;0.70;97.14
16978;BME280;8605;52.548;4.918;2023-12-04T01:51:08;101167.06;;;0.69;97.27
16978;BME280;8605;52.548;4.918;2023-12-04T01:53:38;101162.63;;;0.69;97.26
16978;BME280;8605;52.548;4.918;2023-12-04T01:56:07;101155.53;;;0.70;97.61
16978;BME280;8605;52.548;4.918;2023-12-04T01:58:36;101163.47;;;0.70;97.47
16978;BME280;8605;52.548;4.918;2023-12-04T02:01:05;101153.97;;;0.66;97.49
16978;BME280;8605;52.548;4.918;2023-12-04T02:03:33;101166.88;;;0.72;97.92
16978;BME280;8605;52.548;4.918;2023-12-04T02:06:03;101159.88;;;0.71;97.77
16978;BME280;8605;52.548;4.918;2023-12-04T02:08:33;101155.53;;;0.70;97.61
16978;BME280;8605;52.548;4.918;2023-12-04T02:11:02;101154.75;;;0.68;97.56
16978;BME280;8605;52.548;4.918;2023-12-04T02:13:30;101150.31;;;0.68;97.59
16978;BME280;8605;52.548;4.918;2023-12-04T02:16:01;101151.25;;;0.67;97.12
16978;BME280;8605;52.548;4.918;2023-12-04T02:18:33;101149.44;;;0.68;97.23
16978;BME280;8605;52.548;4.918;2023-12-04T02:21:01;101147.47;;;0.71;97.14
16978;BME280;8605;52.548;4.918;2023-12-04T02:23:29;101141.34;;;0.71;96.57
16978;BME280;8605;52.548;4.918;2023-12-04T02:25:59;101142.09;;;0.73;96.46
16978;BME280;8605;52.548;4.918;2023-12-04T02:28:33;101142.09;;;0.73;96.61
16978;BME280;8605;52.548;4.918;2023-12-04T02:31:04;101135.00;;;0.73;96.78
16978;BME280;8605;52.548;4.918;2023-12-04T02:33:34;101133.22;;;0.74;95.92
16978;BME280;8605;52.548;4.918;2023-12-04T02:36:04;101127.91;;;0.74;96.34
16978;BME280;8605;52.548;4.918;2023-12-04T02:38:33;101121.69;;;0.75;95.72
16978;BME280;8605;52.548;4.918;2023-12-04T02:41:02;101118.97;;;0.76;96.27
16978;BME280;8605;52.548;4.918;2023-12-04T02:43:30;101114.94;;;0.69;96.14
16978;BME280;8605;52.548;4.918;2023-12-04T02:46:00;101124.34;;;0.75;95.81
16978;BME280;8605;52.548;4.918;2023-12-04T02:48:30;101113.81;;;0.73;96.20
16978;BME280;8605;52.548;4.918;2023-12-04T02:50:58;101112.97;;;0.73;95.96
16978;BME280;8605;52.548;4.918;2023-12-04T02:53:25;101108.44;;;0.75;95.83
16978;BME280;8605;52.548;4.918;2023-12-04T02:55:53;101104.00;;;0.75;95.63
16978;BME280;8605;52.548;4.918;2023-12-04T02:58:23;101106.56;;;0.77;95.66
16978;BME280;8605;52.548;4.918;2023-12-04T03:00:51;101097.78;;;0.76;96.33
16978;BME280;8605;52.548;4.918;2023-12-04T03:03:19;101082.91;;;0.74;95.87
16978;BME280;8605;52.548;4.918;2023-12-04T03:05:48;101090.84;;;0.74;95.96
16978;BME280;8605;52.548;4.918;2023-12-04T03:08:16;101090.84;;;0.74;95.42
16978;BME280;8605;52.548;4.918;2023-12-04T03:10:44;101078.38;;;0.76;95.38
16978;BME280;8605;52.548;4.918;2023-12-04T03:13:12;101072.16;;;0.77;95.49
16978;BME280;8605;52.548;4.918;2023-12-04T03:15:41;101069.50;;;0.77;95.38
16978;BME280;8605;52.548;4.918;2023-12-04T03:18:09;101052.25;;;0.70;95.49
16978;BME280;8605;52.548;4.918;2023-12-04T03:20:38;101058.91;;;0.77;95.25
16978;BME280;8605;52.548;4.918;2023-12-04T03:23:06;101055.41;;;0.76;95.23
16978;BME280;8605;52.548;4.918;2023-12-04T03:25:34;101053.59;;;0.77;95.78
16978;BME280;8605;52.548;4.918;2023-12-04T03:28:01;101049.16;;;0.77;95.84
16978;BME280;8605;52.548;4.918;2023-12-04T03:30:29;101050.00;;;0.78;95.32
16978;BME280;8605;52.548;4.918;2023-12-04T03:32:58;101041.31;;;0.76;95.65
16978;BME280;8605;52.548;4.918;2023-12-04T03:35:26;101043.00;;;0.77;94.98
16978;BME280;8605;52.548;4.918;2023-12-04T03:37:54;101036.94;;;0.75;95.43
16978;BME280;8605;52.548;4.918;2023-12-04T03:40:22;101030.72;;;0.76;95.03
16978;BME280;8605;52.548;4.918;2023-12-04T03:42:53;101019.06;;;0.78;94.64
16978;BME280;8605;52.548;4.918;2023-12-04T03:45:21;101031.38;;;0.79;94.75
16978;BME280;8605;52.548;4.918;2023-12-04T03:47:49;101021.63;;;0.80;94.66
16978;BME280;8605;52.548;4.918;2023-12-04T03:50:18;101028.72;;;0.79;94.56
16978;BME280;8605;52.548;4.918;2023-12-04T03:52:46;101013.69;;;0.80;94.31
16978;BME280;8605;52.548;4.918;2023-12-04T03:55:14;101017.19;;;0.80;94.29
16978;BME280;8605;52.548;4.918;2023-12-04T03:57:42;101010.94;;;0.82;93.84
16978;BME280;8605;52.548;4.918;2023-12-04T04:00:12;101005.75;;;0.80;94.27
16978;BME280;8605;52.548;4.918;2023-12-04T04:02:43;100996.44;;;0.73;94.11
16978;BME280;8605;52.548;4.918;2023-12-04T04:05:14;100998.84;;;0.77;94.36
16978;BME280;8605;52.548;4.918;2023-12-04T04:07:43;100989.84;;;0.80;93.77
16978;BME280;8605;52.548;4.918;2023-12-04T04:10:11;100995.91;;;0.82;93.80
16978;BME280;8605;52.548;4.918;2023-12-04T04:12:39;100992.41;;;0.82;94.31
16978;BME280;8605;52.548;4.918;2023-12-04T04:15:07;100995.06;;;0.82;93.82
16978;BME280;8605;52.548;4.918;2023-12-04T04:17:35;100991.56;;;0.81;94.12
16978;BME280;8605;52.548;4.918;2023-12-04T04:20:03;100983.63;;;0.81;93.70
16978;BME280;8605;52.548;4.918;2023-12-04T04:22:31;100977.66;;;0.77;93.68
16978;BME280;8605;52.548;4.918;2023-12-04T04:25:06;100975.66;;;0.81;93.57
16978;BME280;8605;52.548;4.918;2023-12-04T04:27:35;100968.59;;;0.82;93.19
16978;BME280;8605;52.548;4.918;2023-12-04T04:30:03;100978.47;;;0.78;93.83
16978;BME280;8605;52.548;4.918;2023-12-04T04:32:31;100956.72;;;0.73;93.75
16978;BME280;8605;52.548;4.918;2023-12-04T04:34:59;100975.84;;;0.78;93.79
16978;BME280;8605;52.548;4.918;2023-12-04T04:37:27;100976.81;;;0.77;93.30
16978;BME280;8605;52.548;4.918;2023-12-04T04:39:55;100972.25;;;0.79;93.09
16978;BME280;8605;52.548;4.918;2023-12-04T04:42:24;100968.66;;;0.80;92.48
16978;BME280;8605;52.548;4.918;2023-12-04T04:44:53;100963.56;;;0.77;93.03
16978;BME280;8605;52.548;4.918;2023-12-04T04:47:21;100959.00;;;0.79;92.68
16978;BME280;8605;52.548;4.918;2023-12-04T04:49:48;100960.34;;;0.86;91.61
16978;BME280;8605;52.548;4.918;2023-12-04T04:52:16;100954.47;;;0.81;92.87
16978;BME280;8605;52.548;4.918;2023-12-04T04:54:44;100950.13;;;0.80;92.39
16978;BME280;8605;52.548;4.918;2023-12-04T04:57:12;100950.22;;;0.78;91.76
16978;BME280;8605;52.548;4.918;2023-12-04T04:59:41;100947.00;;;0.73;92.49
16978;BME280;8605;52.548;4.918;2023-12-04T05:02:09;100948.63;;;0.76;92.01
16978;BME280;8605;52.548;4.918;2023-12-04T05:04:37;100947.47;;;0.80;91.96
16978;BME280;8605;52.548;4.918;2023-12-04T05:07:05;100948.53;;;0.77;91.38
16978;BME280;8605;52.548;4.918;2023-12-04T05:09:32;100954.66;;;0.78;92.02
16978;BME280;8605;52.548;4.918;2023-12-04T05:12:00;100947.69;;;0.77;91.50
16978;BME280;8605;52.548;4.918;2023-12-04T05:14:28;100936.13;;;0.78;91.59
16978;BME280;8605;52.548;4.918;2023-12-04T05:16:57;100933.66;;;0.75;91.72
16978;BME280;8605;52.548;4.918;2023-12-04T05:19:25;100929.88;;;0.79;90.62
16978;BME280;8605;52.548;4.918;2023-12-04T05:21:53;100928.00;;;0.81;90.99
16978;BME280;8605;52.548;4.918;2023-12-04T05:24:20;100931.59;;;0.80;91.00
16978;BME280;8605;52.548;4.918;2023-12-04T05:26:48;100927.44;;;0.76;90.75
16978;BME280;8605;52.548;4.918;2023-12-04T05:29:16;100928.47;;;0.73;91.10
16978;BME280;8605;52.548;4.918;2023-12-04T05:31:44;100933.38;;;0.79;91.01
16978;BME280;8605;52.548;4.918;2023-12-04T05:34:13;100915.06;;;0.76;90.64
16978;BME280;8605;52.548;4.918;2023-12-04T05:36:40;100917.41;;;0.81;90.66
16978;BME280;8605;52.548;4.918;2023-12-04T05:39:08;100913.06;;;0.80;91.28
16978;BME280;8605;52.548;4.918;2023-12-04T05:41:36;100908.69;;;0.79;91.32
16978;BME280;8605;52.548;4.918;2023-12-04T05:44:04;100904.16;;;0.81;91.18
16978;BME280;8605;52.548;4.918;2023-12-04T05:46:31;100899.72;;;0.82;90.95
16978;BME280;8605;52.548;4.918;2023-12-04T05:48:59;100898.50;;;0.87;90.51
16978;BME280;8605;52.548;4.918;2023-12-04T05:51:29;100896.13;;;0.83;90.96
16978;BME280;8605;52.548;4.918;2023-12-04T05:54:00;100892.81;;;0.79;91.59
16978;BME280;8605;52.548;4.918;2023-12-04T05:56:28;100896.41;;;0.78;92.19
16978;BME280;8605;52.548;4.918;2023-12-04T05:58:56;100884.69;;;0.82;91.30
16978;BME280;8605;52.548;4.918;2023-12-04T06:01:24;100892.53;;;0.84;91.37
16978;BME280;8605;52.548;4.918;2023-12-04T06:03:52;100889.69;;;0.87;91.31
16978;BME280;8605;52.548;4.918;2023-12-04T06:06:19;100891.47;;;0.86;91.38
16978;BME280;8605;52.548;4.918;2023-12-04T06:08:48;100882.69;;;0.86;91.42
16978;BME280;8605;52.548;4.918;2023-12-04T06:11:16;100894.13;;;0.86;91.59
16978;BME280;8605;52.548;4.918;2023-12-04T06:13:44;100892.25;;;0.88;91.13
16978;BME280;8605;52.548;4.918;2023-12-04T06:16:12;100885.94;;;0.91;90.85
16978;BME280;8605;52.548;4.918;2023-12-04T06:18:39;100877.13;;;0.90;91.39
16978;BME280;8605;52.548;4.918;2023-12-04T06:21:07;100868.97;;;0.93;90.90
16978;BME280;8605;52.548;4.918;2023-12-04T06:23:36;100860.25;;;0.91;91.07
16978;BME280;8605;52.548;4.918;2023-12-04T06:26:06;100867.25;;;0.92;91.49
16978;BME280;8605;52.548;4.918;2023-12-04T06:28:34;100857.44;;;0.94;91.51
16978;BME280;8605;52.548;4.918;2023-12-04T06:31:02;100857.44;;;0.94;91.24
16978;BME280;8605;52.548;4.918;2023-12-04T06:33:31;100849.50;;;0.94;91.42
16978;BME280;8605;52.548;4.918;2023-12-04T06:35:59;100848.47;;;0.97;90.98
16978;BME280;8605;52.548;4.918;2023-12-04T06:38:31;100850.97;;;0.98;91.01
16978;BME280;8605;52.548;4.918;2023-12-04T06:41:00;100844.00;;;0.97;91.28
16978;BME280;8605;52.548;4.918;2023-12-04T06:43:30;100840.00;;;1.04;90.40
16978;BME280;8605;52.548;4.918;2023-12-04T06:45:58;100843.50;;;1.05;90.22
16978;BME280;8605;52.548;4.918;2023-12-04T06:48:27;100853.06;;;1.07;90.38
16978;BME280;8605;52.548;4.918;2023-12-04T06:50:54;100850.41;;;1.07;90.33
16978;BME280;8605;52.548;4.918;2023-12-04T06:53:22;100848.91;;;1.03;90.75
16978;BME280;8605;52.548;4.918;2023-12-04T06:55:50;100830.16;;;1.06;90.19
16978;BME280;8605;52.548;4.918;2023-12-04T06:58:18;100838.66;;;1.11;89.39
16978;BME280;8605;52.548;4.918;2023-12-04T07:00:47;100840.66;;;1.08;90.19
16978;BME280;8605;52.548;4.918;2023-12-04T07:03:15;100831.47;;;1.13;88.83
16978;BME280;8605;52.548;4.918;2023-12-04T07:05:43;100827.50;;;1.06;89.94
16978;BME280;8605;52.548;4.918;2023-12-04T07:08:10;100831.88;;;1.07;89.70
16978;BME280;8605;52.548;4.918;2023-12-04T07:10:38;100823.16;;;1.05;89.92
16978;BME280;8605;52.548;4.918;2023-12-04T07:13:06;100819.66;;;1.05;90.22
16978;BME280;8605;52.548;4.918;2023-12-04T07:15:34;100815.88;;;1.09;89.55
16978;BME280;8605;52.548;4.918;2023-12-04T07:18:03;100818.72;;;1.06;89.92
16978;BME280;8605;52.548;4.918;2023-12-04T07:20:31;100823.16;;;1.05;89.32
16978;BME280;8605;52.548;4.918;2023-12-04T07:22:59;100811.72;;;1.05;89.83
16978;BME280;8605;52.548;4.918;2023-12-04T07:25:27;100809.38;;;1.00;89.49
16978;BME280;8605;52.548;4.918;2023-12-04T07:27:55;100810.13;;;1.02;89.61
16978;BME280;8605;52.548;4.918;2023-12-04T07:30:24;100817.13;;;1.03;89.85
16978;BME280;8605;52.548;4.918;2023-12-04T07:32:52;100815.44;;;1.02;89.29
16978;BME280;8605;52.548;4.918;2023-12-04T07:35:24;100802.06;;;1.04;89.11
16978;BME280;8605;52.548;4.918;2023-12-04T07:37:52;100809.06;;;1.05;89.34
16978;BME280;8605;52.548;4.918;2023-12-04T07:40:20;100807.25;;;1.05;89.35
16978;BME280;8605;52.548;4.918;2023-12-04T07:42:49;100806.31;;;1.06;89.46
16978;BME280;8605;52.548;4.918;2023-12-04T07:45:17;100805.16;;;1.10;88.91
16978;BME280;8605;52.548;4.918;2023-12-04T07:47:45;100807.53;;;1.15;88.24
16978;BME280;8605;52.548;4.918;2023-12-04T07:50:15;100796.84;;;1.16;88.11
16978;BME280;8605;52.548;4.918;2023-12-04T07:52:44;100804.03;;;1.14;88.91
16978;BME280;8605;52.548;4.918;2023-12-04T07:55:12;100804.59;;;1.19;87.60
16978;BME280;8605;52.548;4.918;2023-12-04T07:57:41;100800.13;;;1.20;87.95
16978;BME280;8605;52.548;4.918;2023-12-04T08:00:12;100802.78;;;1.20;88.06
16978;BME280;8605;52.548;4.918;2023-12-04T08:02:44;100808.00;;;1.22;87.83
16978;BME280;8605;52.548;4.918;2023-12-04T08:05:14;100802.88;;;1.18;88.67
16978;BME280;8605;52.548;4.918;2023-12-04T08:07:45;100803.94;;;1.16;88.98
16978;BME280;8605;52.548;4.918;2023-12-04T08:10:13;100796.84;;;1.16;89.05
16978;BME280;8605;52.548;4.918;2023-12-04T08:12:44;100792.69;;;1.12;89.83
16978;BME280;8605;52.548;4.918;2023-12-04T08:15:12;100800.72;;;1.11;89.82
16978;BME280;8605;52.548;4.918;2023-12-04T08:17:40;100801.69;;;1.10;89.89
16978;BME280;8605;52.548;4.918;2023-12-04T08:20:08;100789.56;;;1.06;89.97
16978;BME280;8605;52.548;4.918;2023-12-04T08:22:48;100799.13;;;1.08;90.31
16978;BME280;8605;52.548;4.918;2023-12-04T08:25:16;100799.31;;;1.05;90.48
16978;BME280;8605;52.548;4.918;2023-12-04T08:27:47;100795.81;;;1.05;90.13
16978;BME280;8605;52.548;4.918;2023-12-04T08:30:16;100785.34;;;1.03;90.23
16978;BME280;8605;52.548;4.918;2023-12-04T08:32:44;100793.38;;;1.02;90.63
16978;BME280;8605;52.548;4.918;2023-12-04T08:35:12;100781.63;;;1.06;90.36
16978;BME280;8605;52.548;4.918;2023-12-04T08:37:39;100777.09;;;1.08;90.60
16978;BME280;8605;52.548;4.918;2023-12-04T08:40:11;100775.06;;;1.11;90.04
16978;BME280;8605;52.548;4.918;2023-12-04T08:42:39;100773.72;;;1.18;89.76
16978;BME280;8605;52.548;4.918;2023-12-04T08:45:09;100770.44;;;1.15;89.51
16978;BME280;8605;52.548;4.918;2023-12-04T08:47:37;100782.34;;;1.22;89.57
16978;BME280;8605;52.548;4.918;2023-12-04T08:50:06;100776.94;;;1.24;89.70
16978;BME280;8605;52.548;4.918;2023-12-04T08:52:34;100786.59;;;1.25;89.64
16978;BME280;8605;52.548;4.918;2023-12-04T08:55:05;100778.53;;;1.26;89.34
16978;BME280;8605;52.548;4.918;2023-12-04T08:57:38;100780.34;;;1.26;89.96
16978;BME280;8605;52.548;4.918;2023-12-04T09:00:07;100769.34;;;1.32;88.71
16978;BME280;8605;52.548;4.918;2023-12-04T09:02:35;100779.06;;;1.31;89.34
16978;BME280;8605;52.548;4.918;2023-12-04T09:05:14;100779.53;;;1.38;87.46
16978;BME280;8605;52.548;4.918;2023-12-04T09:07:43;100782.94;;;1.40;87.91
16978;BME280;8605;52.548;4.918;2023-12-04T09:10:13;100790.56;;;1.44;86.93
16978;BME280;8605;52.548;4.918;2023-12-04T09:13:07;100787.84;;;1.46;87.17
16978;BME280;8605;52.548;4.918;2023-12-04T09:15:35;100787.84;;;1.46;86.92
16978;BME280;8605;52.548;4.918;2023-12-04T09:18:04;100778.94;;;1.47;85.44
16978;BME280;8605;52.548;4.918;2023-12-04T09:20:32;100776.19;;;1.48;86.53
16978;BME280;8605;52.548;4.918;2023-12-04T09:23:01;100766.22;;;1.52;84.18
16978;BME280;8605;52.548;4.918;2023-12-04T09:25:34;100771.53;;;1.52;84.54
16978;BME280;8605;52.548;4.918;2023-12-04T09:28:04;100753.19;;;1.49;84.09
16978;BME280;8605;52.548;4.918;2023-12-04T09:30:33;100762.63;;;1.53;84.42
16978;BME280;8605;52.548;4.918;2023-12-04T09:33:01;100770.47;;;1.54;84.29
16978;BME280;8605;52.548;4.918;2023-12-04T09:35:29;100773.97;;;1.55;85.25
16978;BME280;8605;52.548;4.918;2023-12-04T09:37:58;100777.47;;;1.55;84.87
16978;BME280;8605;52.548;4.918;2023-12-04T09:40:26;100783.41;;;1.59;84.38
16978;BME280;8605;52.548;4.918;2023-12-04T09:42:55;100783.22;;;1.62;83.30
16978;BME280;8605;52.548;4.918;2023-12-04T09:45:25;100786.50;;;1.66;83.34
16978;BME280;8605;52.548;4.918;2023-12-04T09:47:53;100778.56;;;1.66;83.29
16978;BME280;8605;52.548;4.918;2023-12-04T09:50:22;100774.00;;;1.68;83.01
16978;BME280;8605;52.548;4.918;2023-12-04T09:52:50;100773.88;;;1.69;82.34
16978;BME280;8605;52.548;4.918;2023-12-04T09:55:19;100764.25;;;1.68;83.01
16978;BME280;8605;52.548;4.918;2023-12-04T09:57:46;100768.38;;;1.72;82.67
16978;BME280;8605;52.548;4.918;2023-12-04T10:00:15;100763.94;;;1.73;83.53
16978;BME280;8605;52.548;4.918;2023-12-04T10:02:46;100754.91;;;1.75;82.59
16978;BME280;8605;52.548;4.918;2023-12-04T10:05:16;100754.81;;;1.77;82.17
16978;BME280;8605;52.548;4.918;2023-12-04T10:07:43;100753.94;;;1.76;82.62
16978;BME280;8605;52.548;4.918;2023-12-04T10:10:12;100755.13;;;1.72;83.56
16978;BME280;8605;52.548;4.918;2023-12-04T10:12:40;100754.91;;;1.75;82.65
16978;BME280;8605;52.548;4.918;2023-12-04T10:15:11;100743.25;;;1.78;81.53
16978;BME280;8605;52.548;4.918;2023-12-04T10:17:43;100743.34;;;1.76;82.35
16978;BME280;8605;52.548;4.918;2023-12-04T10:20:14;100732.09;;;1.73;82.29
16978;BME280;8605;52.548;4.918;2023-12-04T10:22:54;100739.84;;;1.76;81.72
16978;BME280;8605;52.548;4.918;2023-12-04T10:25:24;100740.69;;;1.76;81.89
16978;BME280;8605;52.548;4.918;2023-12-04T10:28:06;100738.25;;;1.73;83.37
16978;BME280;8605;52.548;4.918;2023-12-04T10:30:34;100733.50;;;1.78;81.93
16978;BME280;8605;52.548;4.918;2023-12-04T10:33:03;100716.09;;;1.74;81.96
16978;BME280;8605;52.548;4.918;2023-12-04T10:35:34;100716.81;;;1.76;82.71
16978;BME280;8605;52.548;4.918;2023-12-04T10:38:04;100714.31;;;1.75;83.45
16978;BME280;8605;52.548;4.918;2023-12-04T10:40:33;100715.78;;;1.79;82.93
16978;BME280;8605;52.548;4.918;2023-12-04T10:43:15;100704.50;;;1.75;82.82
16978;BME280;8605;52.548;4.918;2023-12-04T10:45:45;100702.63;;;1.77;82.86
16978;BME280;8605;52.548;4.918;2023-12-04T10:48:14;100703.69;;;1.75;84.65
16978;BME280;8605;52.548;4.918;2023-12-04T10:50:45;100695.59;;;1.76;83.70
16978;BME280;8605;52.548;4.918;2023-12-04T10:53:15;100685.00;;;1.76;83.07
16978;BME280;8605;52.548;4.918;2023-12-04T10:55:44;100681.50;;;1.76;83.54
16978;BME280;8605;52.548;4.918;2023-12-04T10:58:14;100668.34;;;1.74;83.22
16978;BME280;8605;52.548;4.918;2023-12-04T11:00:44;100661.34;;;1.73;84.27
16978;BME280;8605;52.548;4.918;2023-12-04T11:03:20;100663.56;;;1.79;82.84
16978;BME280;8605;52.548;4.918;2023-12-04T11:05:56;100663.47;;;1.81;83.45
16978;BME280;8605;52.548;4.918;2023-12-04T11:08:29;100659.75;;;1.83;82.46
16978;BME280;8605;52.548;4.918;2023-12-04T11:11:02;100657.84;;;1.85;82.52
16978;BME280;8605;52.548;4.918;2023-12-04T11:13:33;100646.19;;;1.88;81.97
16978;BME280;8605;52.548;4.918;2023-12-04T11:16:05;100644.16;;;1.91;81.35
16978;BME280;8605;52.548;4.918;2023-12-04T11:18:40;100637.91;;;1.92;82.03
16978;BME280;8605;52.548;4.918;2023-12-04T11:21:12;100638.22;;;2.00;80.21
16978;BME280;8605;52.548;4.918;2023-12-04T11:23:41;100629.50;;;1.98;80.64
16978;BME280;8605;52.548;4.918;2023-12-04T11:26:16;100627.47;;;2.02;81.12
16978;BME280;8605;52.548;4.918;2023-12-04T11:28:45;100631.81;;;2.03;81.42
16978;BME280;8605;52.548;4.918;2023-12-04T11:31:14;100627.88;;;2.09;79.99
16978;BME280;8605;52.548;4.918;2023-12-04T11:33:42;100628.72;;;2.09;78.95
16978;BME280;8605;52.548;4.918;2023-12-04T11:36:12;100622.13;;;2.15;79.32
16978;BME280;8605;52.548;4.918;2023-12-04T11:38:44;100625.31;;;2.20;79.04
16978;BME280;8605;52.548;4.918;2023-12-04T11:41:16;100619.56;;;2.26;78.69
16978;BME280;8605;52.548;4.918;2023-12-04T11:43:50;100619.25;;;2.30;79.67
16978;BME280;8605;52.548;4.918;2023-12-04T11:46:22;100616.34;;;2.33;77.16
16978;BME280;8605;52.548;4.918;2023-12-04T11:48:53;100618.03;;;2.34;78.01
16978;BME280;8605;52.548;4.918;2023-12-04T11:51:49;100609.22;;;2.34;76.13
16978;BME280;8605;52.548;4.918;2023-12-04T11:54:21;100605.97;;;2.30;77.19
16978;BME280;8605;52.548;4.918;2023-12-04T11:56:58;100608.50;;;2.32;77.38
16978;BME280;8605;52.548;4.918;2023-12-04T11:59:27;100603.22;;;2.32;77.69
16978;BME280;8605;52.548;4.918;2023-12-04T12:01:55;100600.41;;;2.33;77.78
16978;BME280;8605;52.548;4.918;2023-12-04T12:04:27;100600.66;;;2.30;78.01
16978;BME280;8605;52.548;4.918;2023-12-04T12:07:02;100591.44;;;2.23;78.83
16978;BME280;8605;52.548;4.918;2023-12-04T12:09:34;100585.78;;;2.28;80.02
16978;BME280;8605;52.548;4.918;2023-12-04T12:12:02;100572.75;;;2.25;77.58
16978;BME280;8605;52.548;4.918;2023-12-04T12:14:31;100583.66;;;2.33;78.34
16978;BME280;8605;52.548;4.918;2023-12-04T12:16:59;100571.97;;;2.35;77.87
16978;BME280;8605;52.548;4.918;2023-12-04T12:19:28;100573.88;;;2.33;78.69
16978;BME280;8605;52.548;4.918;2023-12-04T12:21:56;100575.81;;;2.31;78.07
16978;BME280;8605;52.548;4.918;2023-12-04T12:24:25;100577.28;;;2.35;78.20
16978;BME280;8605;52.548;4.918;2023-12-04T12:26:53;100569.53;;;2.32;77.93
16978;BME280;8605;52.548;4.918;2023-12-04T12:29:24;100564.25;;;2.32;78.03
16978;BME280;8605;52.548;4.918;2023-12-04T12:31:52;100565.91;;;2.33;77.85
16978;BME280;8605;52.548;4.918;2023-12-04T12:34:20;100568.56;;;2.33;78.73
16978;BME280;8605;52.548;4.918;2023-12-04T12:36:47;100548.63;;;2.28;78.29
16978;BME280;8605;52.548;4.918;2023-12-04T12:39:15;100553.38;;;2.35;78.74
16978;BME280;8605;52.548;4.918;2023-12-04T12:41:48;100549.88;;;2.35;78.31
16978;BME280;8605;52.548;4.918;2023-12-04T12:44:17;100542.66;;;2.37;78.70
16978;BME280;8605;52.548;4.918;2023-12-04T12:46:47;100554.97;;;2.38;79.10
16978;BME280;8605;52.548;4.918;2023-12-04T12:49:17;100539.25;;;2.35;79.05
16978;BME280;8605;52.548;4.918;2023-12-04T12:52:02;100552.31;;;2.38;78.61
16978;BME280;8605;52.548;4.918;2023-12-04T12:54:30;100539.03;;;2.38;80.29
16978;BME280;8605;52.548;4.918;2023-12-04T12:57:03;100534.69;;;2.37;79.68
16978;BME280;8605;52.548;4.918;2023-12-04T12:59:31;100534.78;;;2.35;79.44
16978;BME280;8605;52.548;4.918;2023-12-04T13:01:59;100529.50;;;2.35;79.31
16978;BME280;8605;52.548;4.918;2023-12-04T13:04:34;100524.53;;;2.31;79.43
16978;BME280;8605;52.548;4.918;2023-12-04T13:07:05;100523.56;;;2.32;80.75
16978;BME280;8605;52.548;4.918;2023-12-04T13:09:33;100519.44;;;2.28;81.06
16978;BME280;8605;52.548;4.918;2023-12-04T13:12:05;100513.66;;;2.34;79.57
16978;BME280;8605;52.548;4.918;2023-12-04T13:14:36;100508.13;;;2.37;80.41
16978;BME280;8605;52.548;4.918;2023-12-04T13:17:07;100501.03;;;2.37;80.67
16978;BME280;8605;52.548;4.918;2023-12-04T13:19:36;100502.19;;;2.33;81.26
16978;BME280;8605;52.548;4.918;2023-12-04T13:22:04;100497.88;;;2.32;81.46